In Rescue
 
Open Full Screen Window  High Contrast Mode
Wind Gusting 19 knots
15
April 02, 2020 10:10 PM CDT
Weather Information
Wind Direction
  180 °
Wind Speed
  15 kt (17 mph)
Wind Gust
  19 kt (22 mph)
Altimeter
29.93 in
Visibility
10 SM
Temperature
14° C
57° F
Dewpoint
08° C
46° F
Humidity
67%
1hr Rain Fall
00.00 in.
24hr Rain Fall
00.00 in.
Sky Condition
Missing
VFR

METAR KOWA 030310Z AUTO 18015G19KT 10SM 14/08 A2993 RMK AO2

FAA Disclaimer: The data displayed is for advisory purposes only and is not to be used for flight planning or operations.
Missing Cloud Data